Time;durP1;ratioP1;P1;durP2;ratioP2;P2;SDS_P1;SDS_P2;PMS_P1;PMS_P2;Temp;Humidity;BMP_temperature;BMP_pressure;BME280_temperature;BME280_humidity;BME280_pressure;Samples;Min_cycle;Max_cycle;Signal;HPM_P1;HPM_P2
2022/06/27 00:02:09;;;;;;;0.10;0.10;;;;;;;;;;5037328;28;20033;-70
2022/06/27 00:04:35;;;;;;;0.10;0.10;;;;;;;;;;5036986;28;20057;-70
2022/06/27 00:07:02;;;;;;;0.10;0.10;;;;;;;;;;5037143;28;20042;-70
2022/06/27 00:09:28;;;;;;;0.10;0.10;;;;;;;;;;5037196;28;20042;-70
2022/06/27 00:11:55;;;;;;;0.10;0.10;;;;;;;;;;5036783;28;20046;-70
2022/06/27 00:14:21;;;;;;;0.10;0.10;;;;;;;;;;5036977;28;20077;-70
2022/06/27 00:16:47;;;;;;;0.10;0.10;;;;;;;;;;5037271;28;20045;-70
2022/06/27 00:19:13;;;;;;;0.10;0.10;;;;;;;;;;5037547;28;20468;-70
2022/06/27 00:21:40;;;;;;;0.10;0.10;;;;;;;;;;5036580;28;20034;-70
2022/06/27 00:24:06;;;;;;;0.10;0.10;;;;;;;;;;5037460;28;20518;-70
2022/06/27 00:26:32;;;;;;;0.10;0.10;;;;;;;;;;5036941;28;20053;-70
2022/06/27 00:28:58;;;;;;;0.10;0.10;;;;;;;;;;5036878;28;20120;-70
2022/06/27 00:31:24;;;;;;;0.10;0.10;;;;;;;;;;5036204;28;20071;-70
2022/06/27 00:33:50;;;;;;;0.20;0.20;;;;;;;;;;5036084;28;20047;-70
2022/06/27 00:36:16;;;;;;;0.10;0.10;;;;;;;;;;5036703;28;20053;-70
2022/06/27 00:38:43;;;;;;;0.10;0.10;;;;;;;;;;5036342;28;20045;-70
2022/06/27 00:41:09;;;;;;;0.10;0.10;;;;;;;;;;5035769;28;20034;-70
2022/06/27 00:43:35;;;;;;;0.10;0.10;;;;;;;;;;5036227;28;20489;-70
2022/06/27 00:46:01;;;;;;;0.10;0.10;;;;;;;;;;5036731;28;20380;-70
2022/06/27 00:48:27;;;;;;;0.10;0.10;;;;;;;;;;5035878;28;20504;-70
2022/06/27 00:50:53;;;;;;;0.10;0.10;;;;;;;;;;5035600;28;20132;-70
2022/06/27 00:53:19;;;;;;;0.10;0.10;;;;;;;;;;5036075;28;20108;-70
2022/06/27 00:55:46;;;;;;;0.10;0.10;;;;;;;;;;5035807;28;20056;-70
2022/06/27 00:58:12;;;;;;;0.10;0.10;;;;;;;;;;5035972;28;20049;-70
2022/06/27 01:00:38;;;;;;;0.10;0.10;;;;;;;;;;5035682;28;20041;-70
2022/06/27 01:03:04;;;;;;;0.10;0.10;;;;;;;;;;5035838;28;20092;-70
2022/06/27 01:05:31;;;;;;;0.10;0.10;;;;;;;;;;5036436;28;20045;-70
2022/06/27 01:07:57;;;;;;;0.10;0.10;;;;;;;;;;5035506;28;20033;-70
2022/06/27 01:10:23;;;;;;;0.10;0.10;;;;;;;;;;5036273;28;20095;-70
2022/06/27 01:12:49;;;;;;;0.10;0.10;;;;;;;;;;5035255;28;20041;-70
2022/06/27 01:15:15;;;;;;;0.10;0.10;;;;;;;;;;5035856;28;20057;-70
2022/06/27 01:17:42;;;;;;;0.10;0.10;;;;;;;;;;5035392;28;20041;-70
2022/06/27 01:20:08;;;;;;;0.10;0.10;;;;;;;;;;5036053;28;20457;-70
2022/06/27 01:22:34;;;;;;;0.10;0.10;;;;;;;;;;5035505;28;20112;-70
2022/06/27 01:25:00;;;;;;;0.10;0.10;;;;;;;;;;5035472;28;20493;-70
2022/06/27 01:27:27;;;;;;;0.10;0.10;;;;;;;;;;5034864;28;20137;-70
2022/06/27 01:29:53;;;;;;;0.10;0.10;;;;;;;;;;5035091;28;20045;-70
2022/06/27 01:32:19;;;;;;;0.10;0.10;;;;;;;;;;5035538;28;20072;-70
2022/06/27 01:34:45;;;;;;;0.10;0.10;;;;;;;;;;5035219;28;20042;-70
2022/06/27 01:37:11;;;;;;;0.10;0.10;;;;;;;;;;5034729;28;20049;-70
2022/06/27 01:39:37;;;;;;;0.10;0.10;;;;;;;;;;5035222;28;20071;-70
2022/06/27 01:42:04;;;;;;;0.17;0.17;;;;;;;;;;5034717;28;20045;-70
2022/06/27 01:44:32;;;;;;;0.10;0.10;;;;;;;;;;5035120;28;20037;-70
2022/06/27 01:47:00;;;;;;;0.10;0.10;;;;;;;;;;5034872;28;20045;-70
2022/06/27 01:49:28;;;;;;;0.10;0.10;;;;;;;;;;5035150;28;20034;-70
2022/06/27 01:51:55;;;;;;;0.10;0.10;;;;;;;;;;5035135;28;20045;-70
2022/06/27 01:54:21;;;;;;;0.13;0.13;;;;;;;;;;5034908;28;20041;-70
2022/06/27 01:56:49;;;;;;;0.10;0.10;;;;;;;;;;5034620;28;20052;-70
2022/06/27 01:59:16;;;;;;;0.10;0.10;;;;;;;;;;5034819;28;20045;-70
2022/06/27 02:01:42;;;;;;;0.10;0.10;;;;;;;;;;5033912;28;20048;-70
2022/06/27 02:04:09;;;;;;;0.10;0.10;;;;;;;;;;5034501;28;20045;-70
2022/06/27 02:06:36;;;;;;;0.10;0.10;;;;;;;;;;5035181;28;20562;-70
2022/06/27 02:09:06;;;;;;;0.10;0.10;;;;;;;;;;5034965;28;20037;-70
2022/06/27 02:11:32;;;;;;;0.20;0.20;;;;;;;;;;5034313;28;20203;-70
2022/06/27 02:13:59;;;;;;;0.10;0.10;;;;;;;;;;5034322;28;20045;-70
2022/06/27 02:16:25;;;;;;;0.10;0.10;;;;;;;;;;5034716;28;20140;-70
2022/06/27 02:18:51;;;;;;;0.10;0.10;;;;;;;;;;5034634;28;20054;-70
2022/06/27 02:21:26;;;;;;;0.10;0.10;;;;;;;;;;5034645;28;20492;-70
2022/06/27 02:23:53;;;;;;;0.10;0.10;;;;;;;;;;5034909;28;20081;-70
2022/06/27 02:26:21;;;;;;;0.10;0.10;;;;;;;;;;5034138;28;20057;-70
2022/06/27 02:28:47;;;;;;;0.10;0.10;;;;;;;;;;5034798;28;20041;-70
2022/06/27 02:31:13;;;;;;;0.10;0.10;;;;;;;;;;5034198;28;20420;-70
2022/06/27 02:33:41;;;;;;;0.10;0.10;;;;;;;;;;5034117;28;20033;-70
2022/06/27 02:36:09;;;;;;;0.20;0.20;;;;;;;;;;5034457;28;20081;-70
2022/06/27 02:38:35;;;;;;;0.10;0.10;;;;;;;;;;5035158;28;20048;-70
2022/06/27 02:41:04;;;;;;;0.10;0.10;;;;;;;;;;5034274;28;20038;-70
2022/06/27 02:43:32;;;;;;;0.10;0.10;;;;;;;;;;5034319;28;20039;-70
2022/06/27 02:45:58;;;;;;;0.15;0.15;;;;;;;;;;5034836;28;20042;-70
2022/06/27 02:48:26;;;;;;;0.10;0.10;;;;;;;;;;5034322;28;20075;-70
2022/06/27 02:50:54;;;;;;;0.10;0.10;;;;;;;;;;5034285;28;20048;-70
2022/06/27 02:53:24;;;;;;;0.10;0.10;;;;;;;;;;5034310;28;20037;-70
2022/06/27 02:55:51;;;;;;;0.10;0.10;;;;;;;;;;5034539;28;20056;-70
2022/06/27 02:58:24;;;;;;;0.13;0.13;;;;;;;;;;5034420;28;20048;-70
2022/06/27 03:00:52;;;;;;;0.10;0.10;;;;;;;;;;5034690;28;20065;-70
2022/06/27 03:03:18;;;;;;;0.10;0.10;;;;;;;;;;5034193;28;20037;-70
2022/06/27 03:05:56;;;;;;;0.10;0.10;;;;;;;;;;5034206;28;20049;-70
2022/06/27 03:08:22;;;;;;;0.10;0.10;;;;;;;;;;5034916;28;20116;-70
2022/06/27 03:10:48;;;;;;;0.10;0.10;;;;;;;;;;5033927;28;20095;-70
2022/06/27 03:13:14;;;;;;;0.30;0.30;;;;;;;;;;5035435;28;20064;-70
2022/06/27 03:15:40;;;;;;;0.10;0.10;;;;;;;;;;5037597;28;20577;-70
2022/06/27 03:18:07;;;;;;;0.10;0.10;;;;;;;;;;5037577;28;20124;-70
2022/06/27 03:20:33;;;;;;;0.10;0.10;;;;;;;;;;5037773;28;20045;-70
2022/06/27 03:22:59;;;;;;;0.10;0.10;;;;;;;;;;5037814;28;20041;-70
2022/06/27 03:25:25;;;;;;;0.10;0.10;;;;;;;;;;5037751;28;20503;-70
2022/06/27 03:27:51;;;;;;;0.10;0.10;;;;;;;;;;5037963;28;20064;-70
2022/06/27 03:30:17;;;;;;;0.10;0.10;;;;;;;;;;5037725;28;20187;-70
2022/06/27 03:32:43;;;;;;;0.10;0.10;;;;;;;;;;5037833;28;20033;-70
2022/06/27 03:35:10;;;;;;;0.10;0.10;;;;;;;;;;5037505;28;20045;-70
2022/06/27 03:37:36;;;;;;;0.10;0.10;;;;;;;;;;5037388;28;20496;-70
2022/06/27 03:40:02;;;;;;;0.10;0.10;;;;;;;;;;5037786;28;20042;-70
2022/06/27 03:42:28;;;;;;;0.10;0.10;;;;;;;;;;5037591;28;20037;-70
2022/06/27 03:44:54;;;;;;;0.10;0.10;;;;;;;;;;5038207;28;20495;-68
2022/06/27 03:47:20;;;;;;;0.10;0.10;;;;;;;;;;5037497;28;20045;-69
2022/06/27 03:50:02;;;;;;;0.10;0.10;;;;;;;;;;5037610;28;20122;-70
2022/06/27 03:52:29;;;;;;;0.10;0.10;;;;;;;;;;5037720;28;20076;-70
2022/06/27 03:54:55;;;;;;;0.10;0.10;;;;;;;;;;5037365;28;20048;-70
2022/06/27 03:57:21;;;;;;;0.10;0.10;;;;;;;;;;5037286;28;20038;-70
2022/06/27 03:59:47;;;;;;;0.10;0.10;;;;;;;;;;5037404;28;20523;-70
2022/06/27 04:02:16;;;;;;;0.10;0.10;;;;;;;;;;5037443;28;20033;-70
2022/06/27 04:04:42;;;;;;;0.10;0.10;;;;;;;;;;5037052;28;20046;-70
2022/06/27 04:07:08;;;;;;;0.10;0.10;;;;;;;;;;5037522;28;20510;-70
2022/06/27 04:09:34;;;;;;;0.10;0.10;;;;;;;;;;5037221;28;20045;-70
2022/06/27 04:12:00;;;;;;;0.10;0.10;;;;;;;;;;5037183;28;20493;-70
2022/06/27 04:14:26;;;;;;;0.10;0.10;;;;;;;;;;5016297;28;20100;-70
2022/06/27 04:16:52;;;;;;;0.10;0.10;;;;;;;;;;5015999;28;20505;-70
2022/06/27 04:19:19;;;;;;;0.10;0.10;;;;;;;;;;5016870;28;20129;-70
2022/06/27 04:21:45;;;;;;;0.10;0.10;;;;;;;;;;5017536;28;20041;-70
2022/06/27 04:24:11;;;;;;;0.10;0.10;;;;;;;;;;5016848;28;20041;-70
2022/06/27 04:26:38;;;;;;;0.10;0.10;;;;;;;;;;5015003;28;20058;-70
2022/06/27 04:29:04;;;;;;;0.10;0.10;;;;;;;;;;5015521;28;20045;-70
2022/06/27 04:31:31;;;;;;;0.10;0.10;;;;;;;;;;5015003;28;20516;-70
2022/06/27 04:33:57;;;;;;;0.10;0.10;;;;;;;;;;5016370;28;20046;-70
2022/06/27 04:36:24;;;;;;;0.10;0.10;;;;;;;;;;5016778;28;20077;-70
2022/06/27 04:38:50;;;;;;;0.10;0.10;;;;;;;;;;5015620;28;20764;-70
2022/06/27 04:41:16;;;;;;;0.10;0.10;;;;;;;;;;5016222;28;20556;-70
2022/06/27 04:43:43;;;;;;;0.10;0.10;;;;;;;;;;5015051;28;20037;-70
2022/06/27 04:46:09;;;;;;;0.20;0.20;;;;;;;;;;5015789;28;20386;-70
2022/06/27 04:48:35;;;;;;;0.10;0.10;;;;;;;;;;5016727;28;20041;-70
2022/06/27 04:51:02;;;;;;;0.10;0.10;;;;;;;;;;5011756;28;20489;-70
2022/06/27 04:53:28;;;;;;;0.10;0.10;;;;;;;;;;5008160;28;20034;-71
2022/06/27 04:55:55;;;;;;;0.10;0.10;;;;;;;;;;5006814;28;20130;-71
2022/06/27 04:58:21;;;;;;;0.10;0.10;;;;;;;;;;5008728;28;20041;-71
2022/06/27 05:00:47;;;;;;;0.10;0.10;;;;;;;;;;5016045;28;20041;-71
2022/06/27 05:03:13;;;;;;;0.10;0.10;;;;;;;;;;5015877;28;20038;-74
2022/06/27 05:05:40;;;;;;;0.10;0.10;;;;;;;;;;5013581;28;20054;-72
2022/06/27 05:08:06;;;;;;;0.10;0.10;;;;;;;;;;5021049;28;20045;-71
2022/06/27 05:10:32;;;;;;;0.10;0.10;;;;;;;;;;5033782;28;20129;-71
2022/06/27 05:12:59;;;;;;;0.10;0.10;;;;;;;;;;5033132;28;20067;-71
2022/06/27 05:15:26;;;;;;;0.10;0.10;;;;;;;;;;5033417;28;20106;-71
2022/06/27 05:17:52;;;;;;;0.10;0.10;;;;;;;;;;5034142;28;20102;-71
2022/06/27 05:20:18;;;;;;;0.10;0.10;;;;;;;;;;5035083;28;20483;-71
2022/06/27 05:22:44;;;;;;;0.10;0.10;;;;;;;;;;5034764;28;20531;-71
2022/06/27 05:25:10;;;;;;;0.10;0.10;;;;;;;;;;5034951;28;20071;-71
2022/06/27 05:27:37;;;;;;;0.10;0.10;;;;;;;;;;5035338;28;20056;-71
2022/06/27 05:30:05;;;;;;;0.38;0.35;;;;;;;;;;5035369;28;20033;-71
2022/06/27 05:32:31;;;;;;;1.65;0.85;;;;;;;;;;5035335;28;20451;-71
2022/06/27 05:34:57;;;;;;;0.10;0.10;;;;;;;;;;5035411;28;20037;-71
2022/06/27 05:37:24;;;;;;;0.10;0.10;;;;;;;;;;5034301;28;20381;-71
2022/06/27 05:39:50;;;;;;;0.10;0.10;;;;;;;;;;5035100;28;20484;-71
2022/06/27 05:42:18;;;;;;;0.10;0.10;;;;;;;;;;5034942;28;20415;-71
2022/06/27 05:44:44;;;;;;;0.10;0.10;;;;;;;;;;5035374;28;20080;-71
2022/06/27 05:47:11;;;;;;;0.10;0.10;;;;;;;;;;5034850;28;20563;-71
2022/06/27 05:49:39;;;;;;;0.10;0.10;;;;;;;;;;5035287;28;20072;-71
2022/06/27 05:52:05;;;;;;;0.10;0.10;;;;;;;;;;5035018;28;20052;-71
2022/06/27 05:54:32;;;;;;;0.10;0.10;;;;;;;;;;5035300;28;20499;-71
2022/06/27 05:56:58;;;;;;;0.10;0.10;;;;;;;;;;5034886;28;20407;-71
2022/06/27 05:59:25;;;;;;;0.10;0.10;;;;;;;;;;5034839;28;20141;-71
2022/06/27 06:01:51;;;;;;;0.30;0.30;;;;;;;;;;5035542;28;20037;-71
2022/06/27 06:04:20;;;;;;;0.10;0.10;;;;;;;;;;5034801;28;20575;-69
2022/06/27 06:06:47;;;;;;;0.20;0.20;;;;;;;;;;5034196;28;20107;-70
2022/06/27 06:09:13;;;;;;;0.10;0.10;;;;;;;;;;5034766;28;20048;-72
2022/06/27 06:11:40;;;;;;;0.10;0.10;;;;;;;;;;5034489;28;20040;-72
2022/06/27 06:14:08;;;;;;;0.20;0.20;;;;;;;;;;5034574;28;20510;-72
2022/06/27 06:16:34;;;;;;;0.20;0.20;;;;;;;;;;5034365;28;20045;-72
2022/06/27 06:19:01;;;;;;;0.20;0.20;;;;;;;;;;5034610;28;20559;-72
2022/06/27 06:21:28;;;;;;;0.20;0.20;;;;;;;;;;5034494;28;20034;-72
2022/06/27 06:23:54;;;;;;;0.20;0.20;;;;;;;;;;5034497;28;20034;-72
2022/06/27 06:26:21;;;;;;;0.20;0.20;;;;;;;;;;5034761;28;20060;-72
2022/06/27 06:28:51;;;;;;;0.17;0.17;;;;;;;;;;5034501;28;20034;-72
2022/06/27 06:31:24;;;;;;;0.10;0.10;;;;;;;;;;5034689;28;20038;-72
2022/06/27 06:33:53;;;;;;;0.10;0.10;;;;;;;;;;5034115;28;20041;-72
2022/06/27 06:36:21;;;;;;;0.10;0.10;;;;;;;;;;5034469;28;20044;-72
2022/06/27 06:38:50;;;;;;;0.10;0.10;;;;;;;;;;5034546;28;20034;-72
2022/06/27 06:41:16;;;;;;;0.17;0.17;;;;;;;;;;5034166;28;20034;-72
2022/06/27 06:43:42;;;;;;;0.20;0.20;;;;;;;;;;5034292;28;20046;-69
2022/06/27 06:46:10;;;;;;;0.10;0.10;;;;;;;;;;5034075;28;20035;-69
2022/06/27 06:48:37;;;;;;;0.10;0.10;;;;;;;;;;5035508;28;20045;-69
2022/06/27 06:51:04;;;;;;;0.20;0.20;;;;;;;;;;5038303;28;20065;-69
2022/06/27 06:53:30;;;;;;;0.22;0.22;;;;;;;;;;5038865;28;20037;-69
2022/06/27 06:55:57;;;;;;;0.20;0.20;;;;;;;;;;5038059;28;20045;-69
2022/06/27 06:58:25;;;;;;;0.10;0.10;;;;;;;;;;5038158;28;20041;-69
2022/06/27 07:00:52;;;;;;;0.10;0.10;;;;;;;;;;5038255;28;20515;-69
2022/06/27 07:03:20;;;;;;;0.10;0.10;;;;;;;;;;5037870;28;20078;-69
2022/06/27 07:05:47;;;;;;;0.20;0.20;;;;;;;;;;5037827;28;20052;-69
2022/06/27 07:08:13;;;;;;;0.20;0.20;;;;;;;;;;5038071;28;20492;-69
2022/06/27 07:10:40;;;;;;;0.10;0.10;;;;;;;;;;5037833;28;20115;-69
2022/06/27 07:13:06;;;;;;;0.10;0.10;;;;;;;;;;5037993;28;20091;-69
2022/06/27 07:15:35;;;;;;;0.20;0.20;;;;;;;;;;5038338;28;20053;-69
2022/06/27 07:18:02;;;;;;;0.10;0.10;;;;;;;;;;5037895;28;20068;-69
2022/06/27 07:20:30;;;;;;;0.20;0.20;;;;;;;;;;5037519;28;20041;-69
2022/06/27 07:22:57;;;;;;;0.10;0.10;;;;;;;;;;5037742;28;20683;-69
2022/06/27 07:25:25;;;;;;;0.10;0.10;;;;;;;;;;5037175;28;20038;-69
2022/06/27 07:27:52;;;;;;;0.10;0.10;;;;;;;;;;5038016;28;20061;-68
2022/06/27 07:30:19;;;;;;;0.20;0.20;;;;;;;;;;5037919;28;20034;-69
2022/06/27 07:32:46;;;;;;;0.17;0.17;;;;;;;;;;5037597;28;20037;-70
2022/06/27 07:35:13;;;;;;;0.10;0.10;;;;;;;;;;5037813;28;20052;-71
2022/06/27 07:37:44;;;;;;;0.20;0.20;;;;;;;;;;5037975;28;20118;-71
2022/06/27 07:40:10;;;;;;;0.10;0.10;;;;;;;;;;5038375;28;20065;-71
2022/06/27 07:42:37;;;;;;;0.25;0.25;;;;;;;;;;5037309;28;20067;-71
2022/06/27 07:45:04;;;;;;;0.20;0.20;;;;;;;;;;5037605;28;20037;-71
2022/06/27 07:47:30;;;;;;;0.10;0.10;;;;;;;;;;5037375;28;20041;-70
2022/06/27 07:49:56;;;;;;;0.20;0.20;;;;;;;;;;5037454;28;20064;-71
2022/06/27 07:52:22;;;;;;;0.17;0.17;;;;;;;;;;5037281;28;20048;-71
2022/06/27 07:54:48;;;;;;;0.20;0.20;;;;;;;;;;5038229;28;20041;-71
2022/06/27 07:57:14;;;;;;;0.10;0.10;;;;;;;;;;5037170;28;20115;-71
2022/06/27 07:59:41;;;;;;;0.13;0.13;;;;;;;;;;5036455;28;20400;-71
2022/06/27 08:02:09;;;;;;;0.10;0.10;;;;;;;;;;5037228;28;20072;-71
2022/06/27 08:04:36;;;;;;;0.10;0.10;;;;;;;;;;5037264;28;20548;-71
2022/06/27 08:07:03;;;;;;;0.20;0.20;;;;;;;;;;5037021;28;20117;-71
2022/06/27 08:09:29;;;;;;;0.30;0.30;;;;;;;;;;5037832;28;20060;-71
2022/06/27 08:11:56;;;;;;;0.20;0.20;;;;;;;;;;5037022;28;20048;-71
2022/06/27 08:14:23;;;;;;;0.20;0.20;;;;;;;;;;5037105;28;20057;-71
2022/06/27 08:16:51;;;;;;;0.10;0.10;;;;;;;;;;5036814;28;20088;-71
2022/06/27 08:19:18;;;;;;;0.10;0.10;;;;;;;;;;5037066;28;20029;-71
2022/06/27 08:21:45;;;;;;;0.10;0.10;;;;;;;;;;5036635;28;20108;-71
2022/06/27 08:24:16;;;;;;;0.30;0.30;;;;;;;;;;5036942;28;20037;-71
2022/06/27 08:26:44;;;;;;;0.10;0.10;;;;;;;;;;5036438;28;20050;-71
2022/06/27 08:29:10;;;;;;;0.10;0.10;;;;;;;;;;5036546;28;20044;-71
2022/06/27 08:31:41;;;;;;;0.10;0.10;;;;;;;;;;5036562;28;20076;-71
2022/06/27 08:34:08;;;;;;;0.10;0.10;;;;;;;;;;5037259;28;20045;-71
2022/06/27 08:36:35;;;;;;;1.85;0.70;;;;;;;;;;5036653;28;20048;-71
2022/06/27 08:39:07;;;;;;;0.10;0.10;;;;;;;;;;5036332;28;20029;-71
2022/06/27 08:41:34;;;;;;;0.10;0.10;;;;;;;;;;5036499;28;20072;-71
2022/06/27 08:44:00;;;;;;;0.10;0.10;;;;;;;;;;5036026;28;20048;-71
2022/06/27 08:46:26;;;;;;;0.10;0.10;;;;;;;;;;5036250;28;20050;-71
2022/06/27 08:48:53;;;;;;;0.10;0.10;;;;;;;;;;5036432;28;20057;-71
2022/06/27 08:51:19;;;;;;;0.10;0.10;;;;;;;;;;5036848;28;20052;-71
2022/06/27 08:53:45;;;;;;;0.10;0.10;;;;;;;;;;5036012;28;20555;-71
2022/06/27 08:56:16;;;;;;;0.13;0.13;;;;;;;;;;5036125;28;20038;-71
2022/06/27 08:58:46;;;;;;;;;;;;;;;;;;5036564;28;20091;-71
2022/06/27 09:01:13;;;;;;;0.45;0.32;;;;;;;;;;5035933;28;20355;-71
2022/06/27 09:03:40;;;;;;;0.13;0.13;;;;;;;;;;5035674;28;20033;-71
2022/06/27 09:06:07;;;;;;;0.10;0.10;;;;;;;;;;5036423;28;20053;-71
2022/06/27 09:08:54;;;;;;;0.20;0.20;;;;;;;;;;5036441;28;20107;-71
2022/06/27 09:11:27;;;;;;;0.10;0.10;;;;;;;;;;5034758;28;20112;-71
2022/06/27 09:13:53;;;;;;;0.13;0.13;;;;;;;;;;5035613;28;20037;-71
2022/06/27 09:16:19;;;;;;;0.10;0.10;;;;;;;;;;5035834;28;20112;-71
2022/06/27 09:18:45;;;;;;;0.10;0.10;;;;;;;;;;5035633;28;20037;-71
2022/06/27 09:21:13;;;;;;;0.10;0.10;;;;;;;;;;5034311;28;20042;-71
2022/06/27 09:23:45;;;;;;;0.10;0.10;;;;;;;;;;5035507;28;20045;-71
2022/06/27 09:26:28;;;;;;;0.10;0.10;;;;;;;;;;5034509;28;20041;-72
2022/06/27 09:28:56;;;;;;;0.10;0.10;;;;;;;;;;5035468;28;20037;-71
2022/06/27 09:31:25;;;;;;;0.10;0.10;;;;;;;;;;5035402;28;20076;-71
2022/06/27 09:34:02;;;;;;;0.10;0.10;;;;;;;;;;5035786;28;20037;-71
2022/06/27 09:36:29;;;;;;;0.20;0.20;;;;;;;;;;5035520;28;20052;-71
2022/06/27 09:38:59;;;;;;;0.35;0.35;;;;;;;;;;5034980;28;20084;-71
2022/06/27 09:41:32;;;;;;;0.10;0.10;;;;;;;;;;5035200;28;20034;-71
2022/06/27 09:44:06;;;;;;;0.10;0.10;;;;;;;;;;5034638;28;20463;-71
2022/06/27 09:46:38;;;;;;;0.10;0.10;;;;;;;;;;5034831;28;20041;-71
2022/06/27 09:49:07;;;;;;;0.22;0.22;;;;;;;;;;5034767;28;20065;-71
2022/06/27 09:51:37;;;;;;;0.10;0.10;;;;;;;;;;5035223;28;20045;-71
2022/06/27 09:54:16;;;;;;;0.10;0.10;;;;;;;;;;5035063;28;20142;-71
2022/06/27 09:56:42;;;;;;;0.20;0.20;;;;;;;;;;5034516;28;20286;-71
2022/06/27 09:59:10;;;;;;;0.25;0.25;;;;;;;;;;5034544;28;20041;-71
2022/06/27 10:01:37;;;;;;;0.10;0.10;;;;;;;;;;5034131;28;20475;-71
2022/06/27 10:04:04;;;;;;;0.10;0.10;;;;;;;;;;5034799;28;20481;-71
2022/06/27 10:06:31;;;;;;;0.10;0.10;;;;;;;;;;5035072;28;20156;-71
2022/06/27 10:08:58;;;;;;;0.20;0.20;;;;;;;;;;5035562;28;20120;-71
2022/06/27 10:11:25;;;;;;;0.20;0.20;;;;;;;;;;5034476;28;20562;-71
2022/06/27 10:14:09;;;;;;;0.10;0.10;;;;;;;;;;5034647;28;20037;-71
2022/06/27 10:16:50;;;;;;;0.17;0.17;;;;;;;;;;5034615;28;20041;-71
2022/06/27 10:19:16;;;;;;;0.10;0.10;;;;;;;;;;5034366;28;20053;-71
2022/06/27 10:21:43;;;;;;;0.30;0.20;;;;;;;;;;5034931;28;20045;-71
2022/06/27 10:24:35;;;;;;;0.10;0.10;;;;;;;;;;5033922;28;20053;-71
2022/06/27 10:27:03;;;;;;;0.10;0.10;;;;;;;;;;5032795;28;20057;-71
2022/06/27 10:29:29;;;;;;;0.10;0.10;;;;;;;;;;5034495;28;20033;-71
2022/06/27 10:31:56;;;;;;;0.10;0.10;;;;;;;;;;5034510;28;20052;-71
2022/06/27 10:34:40;;;;;;;0.10;0.10;;;;;;;;;;5034435;28;20057;-71
2022/06/27 10:37:24;;;;;;;0.35;0.35;;;;;;;;;;5034625;28;20045;-71
2022/06/27 10:39:50;;;;;;;0.10;0.10;;;;;;;;;;5034353;28;20128;-71
2022/06/27 10:42:34;;;;;;;0.20;0.20;;;;;;;;;;5034359;28;20044;-71
2022/06/27 10:45:19;;;;;;;0.20;0.20;;;;;;;;;;5034107;28;20396;-71
2022/06/27 10:47:45;;;;;;;0.15;0.15;;;;;;;;;;5034505;28;20041;-71
2022/06/27 10:50:12;;;;;;;0.10;0.10;;;;;;;;;;5034089;28;20041;-71
2022/06/27 10:52:38;;;;;;;0.10;0.10;;;;;;;;;;5034457;28;20038;-71
2022/06/27 10:55:37;;;;;;;0.10;0.10;;;;;;;;;;5034155;28;20053;-71
2022/06/27 10:58:19;;;;;;;0.10;0.10;;;;;;;;;;5021990;28;20045;-71
2022/06/27 11:00:45;;;;;;;0.10;0.10;;;;;;;;;;5034565;28;20080;-71
2022/06/27 11:03:22;;;;;;;0.10;0.10;;;;;;;;;;5034563;28;20038;-71
2022/06/27 11:05:52;;;;;;;0.20;0.20;;;;;;;;;;5033898;28;20500;-71
2022/06/27 11:08:20;;;;;;;0.20;0.20;;;;;;;;;;5034217;28;20045;-71
2022/06/27 11:10:46;;;;;;;0.10;0.10;;;;;;;;;;5033949;28;20067;-71
2022/06/27 11:13:32;;;;;;;0.10;0.10;;;;;;;;;;5033890;28;20041;-71
2022/06/27 11:15:58;;;;;;;0.10;0.10;;;;;;;;;;5034232;28;20508;-71
2022/06/27 11:18:24;;;;;;;0.10;0.10;;;;;;;;;;5034133;28;20095;-71
2022/06/27 11:20:50;;;;;;;0.10;0.10;;;;;;;;;;5034327;28;20480;-71
2022/06/27 11:23:16;;;;;;;0.10;0.10;;;;;;;;;;5034054;28;20047;-71
2022/06/27 11:25:48;;;;;;;0.10;0.10;;;;;;;;;;5033648;28;20132;-71
2022/06/27 11:33:48;;;;;;;0.10;0.10;;;;;;;;;;5033983;28;20172;-71
2022/06/27 11:36:14;;;;;;;0.10;0.10;;;;;;;;;;5037667;28;20045;-71
2022/06/27 11:38:47;;;;;;;0.10;0.10;;;;;;;;;;5037598;28;20037;-71
2022/06/27 11:41:16;;;;;;;0.10;0.10;;;;;;;;;;5037857;28;20045;-71
2022/06/27 11:43:52;;;;;;;0.15;0.15;;;;;;;;;;5037454;28;20038;-71
2022/06/27 11:46:22;;;;;;;0.20;0.20;;;;;;;;;;5036849;28;20040;-71
2022/06/27 11:48:53;;;;;;;0.10;0.10;;;;;;;;;;5037969;28;20128;-71
2022/06/27 11:51:20;;;;;;;0.10;0.10;;;;;;;;;;5037464;28;20045;-71
2022/06/27 11:53:57;;;;;;;0.10;0.10;;;;;;;;;;5037294;28;20042;-71
2022/06/27 11:56:27;;;;;;;0.10;0.10;;;;;;;;;;5037199;28;20187;-71
2022/06/27 11:58:55;;;;;;;0.20;0.20;;;;;;;;;;5037157;28;20087;-71
2022/06/27 12:01:22;;;;;;;0.90;0.40;;;;;;;;;;5037084;28;20087;-71
2022/06/27 12:04:10;;;;;;;0.20;0.20;;;;;;;;;;5037565;28;20033;-71
2022/06/27 12:06:47;;;;;;;0.10;0.10;;;;;;;;;;5036739;28;20046;-71
2022/06/27 12:09:13;;;;;;;0.10;0.10;;;;;;;;;;5037272;28;20038;-71
2022/06/27 12:11:53;;;;;;;0.10;0.10;;;;;;;;;;5036751;28;20045;-71
2022/06/27 12:14:20;;;;;;;0.10;0.10;;;;;;;;;;5036601;28;20052;-71
2022/06/27 12:16:51;;;;;;;0.20;0.20;;;;;;;;;;5037212;28;20148;-71
2022/06/27 12:19:17;;;;;;;0.20;0.20;;;;;;;;;;5036768;28;20033;-71
2022/06/27 12:21:44;;;;;;;0.20;0.20;;;;;;;;;;5036948;28;20049;-71
2022/06/27 12:24:10;;;;;;;0.10;0.10;;;;;;;;;;5037017;28;20049;-72
2022/06/27 12:26:36;;;;;;;0.30;0.30;;;;;;;;;;5036501;28;20073;-72
2022/06/27 12:29:04;;;;;;;0.10;0.10;;;;;;;;;;5037475;28;20088;-71
2022/06/27 12:31:30;;;;;;;0.17;0.17;;;;;;;;;;5036309;28;20041;-71
2022/06/27 12:33:56;;;;;;;0.20;0.20;;;;;;;;;;5037037;28;20117;-71
2022/06/27 12:36:22;;;;;;;3.30;1.08;;;;;;;;;;5036733;28;20049;-71
2022/06/27 12:38:48;;;;;;;0.10;0.10;;;;;;;;;;5036744;28;20060;-71
2022/06/27 12:41:15;;;;;;;0.30;0.30;;;;;;;;;;5036194;28;20468;-71
2022/06/27 12:43:42;;;;;;;0.10;0.10;;;;;;;;;;5036355;28;20043;-71
2022/06/27 12:46:10;;;;;;;0.10;0.10;;;;;;;;;;5035613;28;20120;-71
2022/06/27 12:48:37;;;;;;;0.17;0.17;;;;;;;;;;5036209;28;20124;-71
2022/06/27 12:51:04;;;;;;;0.77;0.40;;;;;;;;;;5036136;28;20037;-71
2022/06/27 12:53:30;;;;;;;0.10;0.10;;;;;;;;;;5036031;28;20043;-71
2022/06/27 12:55:57;;;;;;;0.30;0.30;;;;;;;;;;5035909;28;20057;-71
2022/06/27 12:58:24;;;;;;;0.10;0.10;;;;;;;;;;5035755;28;20507;-72
2022/06/27 13:00:50;;;;;;;0.10;0.10;;;;;;;;;;5036018;28;20041;-71
2022/06/27 13:03:16;;;;;;;0.20;0.20;;;;;;;;;;5036236;28;20364;-71
2022/06/27 13:05:42;;;;;;;0.10;0.10;;;;;;;;;;5036265;28;20076;-71
2022/06/27 13:08:09;;;;;;;0.15;0.15;;;;;;;;;;5035572;28;20040;-71
2022/06/27 13:10:35;;;;;;;0.10;0.10;;;;;;;;;;5035947;28;20480;-71
2022/06/27 13:13:02;;;;;;;0.43;0.43;;;;;;;;;;5035791;28;20048;-72
2022/06/27 13:15:31;;;;;;;0.20;0.20;;;;;;;;;;5035751;28;20103;-71
2022/06/27 13:17:57;;;;;;;0.43;0.43;;;;;;;;;;5035311;28;20512;-71
2022/06/27 13:20:23;;;;;;;0.15;0.15;;;;;;;;;;5035366;28;20045;-71
2022/06/27 13:22:49;;;;;;;0.20;0.20;;;;;;;;;;5035614;28;20041;-71
2022/06/27 13:25:16;;;;;;;0.20;0.20;;;;;;;;;;5035897;28;20095;-71
2022/06/27 13:27:42;;;;;;;0.10;0.10;;;;;;;;;;5035229;28;20080;-71
2022/06/27 13:30:08;;;;;;;0.10;0.10;;;;;;;;;;5035787;28;20049;-71
2022/06/27 13:32:34;;;;;;;0.10;0.10;;;;;;;;;;5035376;28;20029;-71
2022/06/27 13:35:00;;;;;;;0.10;0.10;;;;;;;;;;5035622;28;20052;-71
2022/06/27 13:37:26;;;;;;;0.20;0.20;;;;;;;;;;5035782;28;20041;-71
2022/06/27 13:39:53;;;;;;;0.20;0.20;;;;;;;;;;5035337;28;20444;-72
2022/06/27 13:42:19;;;;;;;0.20;0.20;;;;;;;;;;5035129;28;20143;-71
2022/06/27 13:44:45;;;;;;;0.10;0.10;;;;;;;;;;5034281;28;20423;-71
2022/06/27 13:47:12;;;;;;;0.10;0.10;;;;;;;;;;5035164;28;20036;-71
2022/06/27 13:49:38;;;;;;;0.20;0.20;;;;;;;;;;5035191;28;20128;-72
2022/06/27 13:52:04;;;;;;;0.20;0.20;;;;;;;;;;5035318;28;20099;-71
2022/06/27 13:54:30;;;;;;;0.35;0.35;;;;;;;;;;5035240;28;20072;-71
2022/06/27 13:56:56;;;;;;;0.10;0.10;;;;;;;;;;5034846;28;20397;-72
2022/06/27 13:59:23;;;;;;;0.20;0.20;;;;;;;;;;5034223;28;20041;-71
2022/06/27 14:01:49;;;;;;;0.10;0.10;;;;;;;;;;5035605;28;20084;-72
2022/06/27 14:04:15;;;;;;;0.15;0.15;;;;;;;;;;5035225;28;20044;-71
2022/06/27 14:09:26;;;;;;;0.30;0.30;;;;;;;;;;5035174;28;20076;-71
2022/06/27 14:11:53;;;;;;;0.10;0.10;;;;;;;;;;5034922;28;20048;-71
2022/06/27 14:14:19;;;;;;;0.10;0.10;;;;;;;;;;5034694;28;20045;-71
2022/06/27 14:16:45;;;;;;;0.20;0.20;;;;;;;;;;5034951;28;20124;-71
2022/06/27 14:19:11;;;;;;;0.20;0.20;;;;;;;;;;5035274;28;20045;-71
2022/06/27 14:21:38;;;;;;;0.10;0.10;;;;;;;;;;5035008;28;20069;-71
2022/06/27 14:24:05;;;;;;;0.20;0.20;;;;;;;;;;5034874;28;20048;-71
2022/06/27 14:26:31;;;;;;;0.20;0.20;;;;;;;;;;5034673;28;20123;-72
2022/06/27 14:28:57;;;;;;;0.30;0.30;;;;;;;;;;5034872;28;20071;-71
2022/06/27 14:31:23;;;;;;;0.20;0.20;;;;;;;;;;5034905;28;20049;-71
2022/06/27 14:33:49;;;;;;;0.20;0.20;;;;;;;;;;5034846;28;20063;-71
2022/06/27 14:36:15;;;;;;;0.10;0.10;;;;;;;;;;5034985;28;20053;-71
2022/06/27 14:38:41;;;;;;;0.17;0.17;;;;;;;;;;5034934;28;20029;-71
2022/06/27 14:41:08;;;;;;;0.10;0.10;;;;;;;;;;5034591;28;20042;-71
2022/06/27 14:43:34;;;;;;;0.10;0.10;;;;;;;;;;5034723;28;20072;-71
2022/06/27 14:46:00;;;;;;;0.10;0.10;;;;;;;;;;5034741;28;20060;-71
2022/06/27 14:48:26;;;;;;;0.10;0.10;;;;;;;;;;5034674;28;20044;-71
2022/06/27 14:50:52;;;;;;;0.10;0.10;;;;;;;;;;5034299;28;20046;-71
2022/06/27 14:53:19;;;;;;;0.20;0.20;;;;;;;;;;5034624;28;20537;-71
2022/06/27 14:55:45;;;;;;;0.10;0.10;;;;;;;;;;5034392;28;20084;-71